Time;durP1;ratioP1;P1;durP2;ratioP2;P2;SDS_P1;SDS_P2;PMS_P1;PMS_P2;Temp;Humidity;BMP_temperature;BMP_pressure;BME280_temperature;BME280_humidity;BME280_pressure;Samples;Min_cycle;Max_cycle;Signal;HPM_P1;HPM_P2
2022/03/11 00:02:00;;;;;;;0.20;0.20;;;;;;;0.54;100.00;102165.44;5035119;28;20041;-80
2022/03/11 00:04:34;;;;;;;0.30;0.30;;;;;;;0.53;100.00;102166.47;5047733;28;20046;-80
2022/03/11 00:07:08;;;;;;;0.30;0.30;;;;;;;0.57;100.00;102171.28;5043949;28;20072;-80
2022/03/11 00:09:37;;;;;;;0.20;0.20;;;;;;;0.53;100.00;102164.63;5048034;28;20055;-81
2022/03/11 00:12:07;;;;;;;0.30;0.30;;;;;;;0.52;100.00;102173.66;5045791;28;20048;-80
2022/03/11 00:14:40;;;;;;;0.20;0.20;;;;;;;0.38;100.00;102172.56;5038166;28;20063;-80
2022/03/11 00:17:09;;;;;;;0.20;0.20;;;;;;;0.36;100.00;102163.03;5048336;28;20413;-82
2022/03/11 00:19:37;;;;;;;0.30;0.30;;;;;;;0.37;100.00;102170.88;5032146;28;20053;-80
2022/03/11 00:22:05;;;;;;;0.22;0.22;;;;;;;0.27;100.00;102163.06;5047491;28;20057;-81
2022/03/11 00:24:40;;;;;;;0.30;0.30;;;;;;;0.28;100.00;102180.00;5034646;28;20406;-81
2022/03/11 00:27:13;;;;;;;0.30;0.30;;;;;;;0.07;100.00;102146.59;5046791;28;20124;-80
2022/03/11 00:29:46;;;;;;;0.20;0.20;;;;;;;0.14;100.00;102174.34;5047793;28;20387;-81
2022/03/11 00:32:20;;;;;;;0.30;0.30;;;;;;;0.17;100.00;102174.00;5042619;28;20037;-80
2022/03/11 00:34:48;;;;;;;0.30;0.30;;;;;;;0.07;100.00;102169.84;5060266;28;20061;-80
2022/03/11 00:37:16;;;;;;;0.25;0.25;;;;;;;0.03;100.00;102176.53;5044932;28;20058;-80
2022/03/11 00:39:46;;;;;;;0.20;0.20;;;;;;;-0.15;100.00;102158.91;5047483;28;20074;-80
2022/03/11 00:42:14;;;;;;;0.30;0.30;;;;;;;-0.02;100.00;102164.53;5041372;28;20391;-80
2022/03/11 00:44:42;;;;;;;0.30;0.30;;;;;;;-0.08;100.00;102164.41;5039728;28;20048;-80
2022/03/11 00:47:15;;;;;;;0.20;0.20;;;;;;;-0.11;100.00;102160.22;5051252;28;20041;-80
2022/03/11 00:49:44;;;;;;;0.20;0.20;;;;;;;-0.16;100.00;102165.25;5038113;28;20048;-80
2022/03/11 00:52:17;;;;;;;0.30;0.30;;;;;;;-0.20;100.00;102154.03;5041681;28;20060;-80
2022/03/11 00:54:47;;;;;;;0.30;0.30;;;;;;;-0.19;100.00;102152.22;5042980;28;20052;-80
2022/03/11 00:57:16;;;;;;;0.20;0.20;;;;;;;-0.14;100.00;102165.91;5049366;28;20049;-81
2022/03/11 00:59:49;;;;;;;0.25;0.25;;;;;;;-0.31;100.00;102151.75;5035755;28;20064;-81
2022/03/11 01:02:17;;;;;;;0.20;0.20;;;;;;;-0.28;100.00;102153.25;5037870;28;20065;-80
2022/03/11 01:04:47;;;;;;;0.30;0.30;;;;;;;-0.37;100.00;102166.63;5037049;28;20045;-80
2022/03/11 01:07:20;;;;;;;0.30;0.30;;;;;;;-0.36;100.00;102157.63;5044810;28;20053;-80
2022/03/11 01:09:54;;;;;;;0.30;0.30;;;;;;;-0.39;100.00;102159.78;5042040;28;20061;-81
2022/03/11 01:12:27;;;;;;;0.20;0.20;;;;;;;-0.35;100.00;102167.31;5033096;28;20050;-80
2022/03/11 01:15:01;;;;;;;0.30;0.30;;;;;;;-0.39;100.00;102155.28;5035420;28;20041;-80
2022/03/11 01:17:29;;;;;;;0.20;0.20;;;;;;;-0.53;100.00;102135.38;5038735;28;20058;-80
2022/03/11 01:19:57;;;;;;;0.20;0.20;;;;;;;-0.39;100.00;102163.31;5037420;28;20049;-81
2022/03/11 01:22:30;;;;;;;0.30;0.30;;;;;;;-0.48;100.00;102156.28;5035884;28;20493;-81
2022/03/11 01:25:06;;;;;;;0.20;0.20;;;;;;;-0.54;100.00;102148.94;5045538;28;20049;-80
2022/03/11 01:27:40;;;;;;;0.28;0.28;;;;;;;-0.52;100.00;102152.28;5035171;28;20720;-80
2022/03/11 01:30:13;;;;;;;0.30;0.30;;;;;;;-0.59;100.00;102143.28;5048836;28;20053;-80
2022/03/11 01:32:42;;;;;;;0.20;0.20;;;;;;;-0.66;100.00;102139.59;5042140;28;20588;-80
2022/03/11 01:35:16;;;;;;;0.20;0.20;;;;;;;-0.63;100.00;102140.09;5043101;28;20489;-81
2022/03/11 01:37:49;;;;;;;0.20;0.20;;;;;;;-0.66;100.00;102136.91;5040921;28;20076;-80
2022/03/11 01:40:19;;;;;;;0.20;0.20;;;;;;;-0.59;100.00;102149.47;5046673;28;20065;-80
2022/03/11 01:42:47;;;;;;;0.30;0.30;;;;;;;-0.64;100.00;102143.78;5051488;28;20053;-81
2022/03/11 01:45:15;;;;;;;0.20;0.20;;;;;;;-0.64;100.00;102142.94;5041615;28;20045;-80
2022/03/11 01:47:43;;;;;;;0.30;0.30;;;;;;;-0.70;100.00;102136.44;5033427;28;20509;-80
2022/03/11 01:50:16;;;;;;;0.20;0.20;;;;;;;-0.67;100.00;102146.78;5036046;28;20049;-80
2022/03/11 01:52:49;;;;;;;0.30;0.30;;;;;;;-0.73;100.00;102145.63;5036862;28;20060;-80
2022/03/11 01:55:24;;;;;;;0.20;0.20;;;;;;;-0.68;100.00;102145.09;5037401;28;20410;-80
2022/03/11 01:57:57;;;;;;;0.30;0.30;;;;;;;-0.65;100.00;102146.63;5038453;28;20513;-80
2022/03/11 02:00:31;;;;;;;0.20;0.20;;;;;;;-0.76;100.00;102143.31;5035626;28;20049;-80
2022/03/11 02:02:59;;;;;;;0.20;0.20;;;;;;;-0.77;100.00;102138.13;5051281;28;20044;-80
2022/03/11 02:05:33;;;;;;;0.25;0.25;;;;;;;-0.73;100.00;102145.63;5057930;28;20485;-80
2022/03/11 02:08:06;;;;;;;0.30;0.30;;;;;;;-0.75;100.00;102149.47;5040461;28;20053;-80
2022/03/11 02:10:42;;;;;;;0.20;0.20;;;;;;;-0.82;100.00;102135.94;5032995;28;20049;-81
2022/03/11 02:13:15;;;;;;;0.30;0.30;;;;;;;-0.84;100.00;102145.13;5049858;28;20046;-80
2022/03/11 02:15:43;;;;;;;0.28;0.28;;;;;;;-0.90;100.00;102136.78;5044497;28;20041;-80
2022/03/11 02:18:16;;;;;;;0.20;0.20;;;;;;;-0.95;100.00;102143.63;5030428;28;20513;-80
2022/03/11 02:20:49;;;;;;;0.30;0.30;;;;;;;-1.02;100.00;102135.47;5039265;28;20060;-80
2022/03/11 02:23:23;;;;;;;0.25;0.25;;;;;;;-1.06;100.00;102134.94;5038273;28;20049;-80
2022/03/11 02:25:57;;;;;;;0.22;0.22;;;;;;;-1.13;100.00;102125.94;5041370;28;20048;-80
2022/03/11 02:28:33;;;;;;;0.30;0.30;;;;;;;-0.98;100.00;102136.78;5037093;28;20713;-80
2022/03/11 02:31:07;;;;;;;0.30;0.30;;;;;;;-0.93;100.00;102138.94;5042691;28;20080;-80
2022/03/11 02:33:40;;;;;;;0.30;0.30;;;;;;;-0.98;100.00;102134.13;5041305;28;20489;-80
2022/03/11 02:36:13;;;;;;;0.22;0.22;;;;;;;-1.00;100.00;102124.59;5056370;28;20052;-80
2022/03/11 02:38:47;;;;;;;0.30;0.30;;;;;;;-1.07;100.00;102124.44;5038569;28;20049;-80
2022/03/11 02:41:21;;;;;;;0.22;0.22;;;;;;;-1.07;100.00;102113.75;5031865;28;20520;-81
2022/03/11 02:43:49;;;;;;;0.28;0.28;;;;;;;-1.09;100.00;102108.56;5040470;28;20049;-80
2022/03/11 02:46:23;;;;;;;0.28;0.28;;;;;;;-1.09;100.00;102118.41;5034475;28;20045;-80
2022/03/11 02:48:56;;;;;;;0.20;0.20;;;;;;;-1.13;100.00;102101.88;5032559;28;20485;-80
2022/03/11 02:51:29;;;;;;;0.20;0.20;;;;;;;-1.07;100.00;102113.75;5058508;28;20103;-81
2022/03/11 02:53:57;;;;;;;0.20;0.20;;;;;;;-1.47;100.00;102044.09;5035939;28;20045;-80
2022/03/11 02:56:27;;;;;;;0.25;0.25;;;;;;;-1.10;100.00;102109.56;5033950;28;20049;-80
2022/03/11 02:58:55;;;;;;;0.28;0.28;;;;;;;-1.14;100.00;102120.75;5044535;28;20049;-81
2022/03/11 03:01:28;;;;;;;0.20;0.20;;;;;;;-1.16;100.00;102110.25;5045818;28;20053;-81
2022/03/11 03:04:01;;;;;;;0.30;0.30;;;;;;;-1.20;100.00;102099.03;5033676;28;20049;-81
2022/03/11 03:06:29;;;;;;;0.30;0.30;;;;;;;-1.12;100.00;102110.72;5039053;28;20528;-80
2022/03/11 03:09:02;;;;;;;0.20;0.20;;;;;;;-1.16;100.00;102096.88;5030729;28;20068;-81
2022/03/11 03:11:37;;;;;;;0.20;0.20;;;;;;;-1.19;100.00;102097.19;5032400;28;20046;-80
2022/03/11 03:14:10;;;;;;;0.20;0.20;;;;;;;-1.22;100.00;102106.38;5040391;28;20046;-81
2022/03/11 03:16:43;;;;;;;0.20;0.20;;;;;;;-1.23;100.00;102099.38;5042452;28;20044;-80
2022/03/11 03:19:17;;;;;;;0.30;0.30;;;;;;;-1.21;100.00;102100.03;5036882;28;20046;-80
2022/03/11 03:21:50;;;;;;;0.30;0.30;;;;;;;-1.22;100.00;102102.88;5039042;28;20057;-82
2022/03/11 03:24:23;;;;;;;0.30;0.30;;;;;;;-1.35;100.00;102091.84;5045390;28;20515;-81
2022/03/11 03:26:59;;;;;;;0.30;0.30;;;;;;;-1.33;100.00;102092.53;5036427;28;20057;-80
2022/03/11 03:29:33;;;;;;;0.30;0.30;;;;;;;-1.30;100.00;102100.19;5036405;28;20054;-81
2022/03/11 03:32:06;;;;;;;0.30;0.30;;;;;;;-1.60;100.00;102065.97;5038787;28;20057;-80
2022/03/11 03:34:36;;;;;;;0.25;0.25;;;;;;;-1.42;100.00;102092.53;5049858;28;20049;-81
2022/03/11 03:37:11;;;;;;;0.20;0.20;;;;;;;-1.46;100.00;102087.69;5034880;28;20045;-80
2022/03/11 03:39:45;;;;;;;0.20;0.20;;;;;;;-1.56;100.00;102072.66;5045047;28;20056;-81
2022/03/11 03:42:14;;;;;;;0.30;0.30;;;;;;;-1.46;100.00;102087.69;5044057;28;20571;-81
2022/03/11 03:44:43;;;;;;;0.30;0.30;;;;;;;-1.56;100.00;102088.66;5040901;28;20051;-80
2022/03/11 03:47:16;;;;;;;0.30;0.30;;;;;;;-1.56;100.00;102096.66;5041251;28;20041;-81
2022/03/11 03:49:44;;;;;;;0.20;0.20;;;;;;;-1.57;100.00;102078.16;5034664;28;20049;-81
2022/03/11 03:52:12;;;;;;;0.30;0.30;;;;;;;-1.52;100.00;102091.00;5038615;28;20045;-80
2022/03/11 03:54:41;;;;;;;0.30;0.30;;;;;;;-1.52;100.00;102099.00;5045101;28;20428;-80
2022/03/11 03:57:15;;;;;;;0.30;0.30;;;;;;;-1.54;100.00;102086.66;5047379;28;20805;-81
2022/03/11 03:59:48;;;;;;;0.30;0.30;;;;;;;-1.66;100.00;102069.28;5045687;28;20061;-80
2022/03/11 04:02:21;;;;;;;0.30;0.30;;;;;;;-1.69;100.00;102061.59;5047474;28;20049;-81
2022/03/11 04:04:54;;;;;;;0.30;0.30;;;;;;;-1.63;100.00;102078.78;5045928;28;20049;-80
2022/03/11 04:07:27;;;;;;;0.30;0.30;;;;;;;-1.59;100.00;102086.34;5046250;28;20497;-80
2022/03/11 04:10:00;;;;;;;0.30;0.30;;;;;;;-1.62;100.00;102088.47;5040424;28;20080;-82
2022/03/11 04:12:32;;;;;;;0.20;0.20;;;;;;;-1.62;100.00;102075.13;5051724;28;20048;-80
2022/03/11 04:15:06;;;;;;;0.30;0.30;;;;;;;-1.64;100.00;102080.63;5041640;28;20049;-82
2022/03/11 04:17:40;;;;;;;0.22;0.22;;;;;;;-1.62;100.00;102075.97;5051373;28;20516;-81
2022/03/11 04:20:10;;;;;;;0.30;0.30;;;;;;;-1.64;100.00;102083.31;5044546;28;20060;-81
2022/03/11 04:22:44;;;;;;;0.30;0.30;;;;;;;-1.68;100.00;102081.16;5043097;28;20056;-81
2022/03/11 04:25:17;;;;;;;0.30;0.30;;;;;;;-1.79;100.00;102074.28;5046457;28;20690;-81
2022/03/11 04:27:46;;;;;;;0.30;0.30;;;;;;;-1.77;100.00;102067.78;5046885;28;20128;-81
2022/03/11 04:30:21;;;;;;;0.20;0.20;;;;;;;-1.78;100.00;102074.09;5036357;28;20547;-81
2022/03/11 04:32:49;;;;;;;0.20;0.20;;;;;;;-1.85;100.00;102062.44;5040539;28;20052;-81
2022/03/11 04:35:17;;;;;;;0.20;0.20;;;;;;;-2.06;100.00;102036.16;5038208;28;20052;-81
2022/03/11 04:37:50;;;;;;;0.20;0.20;;;;;;;-1.83;100.00;102072.94;5037918;28;20659;-81
2022/03/11 04:40:24;;;;;;;0.30;0.30;;;;;;;-2.03;100.00;102041.19;5040198;28;20061;-82
2022/03/11 04:42:58;;;;;;;0.30;0.30;;;;;;;-1.85;100.00;102066.91;5035488;28;20057;-81
2022/03/11 04:45:33;;;;;;;0.20;0.20;;;;;;;-1.90;100.00;102060.22;5037305;28;20049;-80
2022/03/11 04:48:07;;;;;;;0.20;0.20;;;;;;;-1.96;100.00;102050.22;5040083;28;20390;-80
2022/03/11 04:50:35;;;;;;;0.20;0.20;;;;;;;-2.16;100.00;102022.97;5045007;28;20053;-81
2022/03/11 04:53:04;;;;;;;0.30;0.30;;;;;;;-2.16;100.00;102027.47;5037464;28;20049;-81
2022/03/11 04:55:32;;;;;;;0.20;0.20;;;;;;;-1.96;100.00;102060.88;5043642;28;20053;-81
2022/03/11 04:58:01;;;;;;;0.22;0.22;;;;;;;-1.99;100.00;102063.03;5040268;28;20046;-81
2022/03/11 05:00:34;;;;;;;0.20;0.20;;;;;;;-2.20;100.00;102024.28;5048123;28;20099;-81
2022/03/11 05:03:07;;;;;;;0.20;0.20;;;;;;;-1.98;100.00;102073.53;5038728;28;20057;-81
2022/03/11 05:05:35;;;;;;;0.20;0.20;;;;;;;-1.98;100.00;102070.06;5048190;28;20052;-81
2022/03/11 05:08:08;;;;;;;0.20;0.20;;;;;;;-2.02;100.00;102066.84;5041768;28;20061;-82
2022/03/11 05:10:41;;;;;;;0.30;0.30;;;;;;;-2.09;100.00;102065.84;5042453;28;20052;-81
2022/03/11 05:13:16;;;;;;;0.30;0.30;;;;;;;-2.11;100.00;102078.53;5049713;28;20525;-80
2022/03/11 05:15:49;;;;;;;0.30;0.30;;;;;;;-2.11;100.00;102078.53;5038248;28;20041;-80
2022/03/11 05:18:17;;;;;;;0.20;0.20;;;;;;;-2.13;100.00;102059.16;5046751;28;20053;-81
2022/03/11 05:20:50;;;;;;;0.20;0.20;;;;;;;-2.07;100.00;102077.19;5039561;28;20061;-81
2022/03/11 05:23:19;;;;;;;0.30;0.30;;;;;;;-2.13;100.00;102073.31;5044205;28;20410;-81
2022/03/11 05:25:47;;;;;;;0.22;0.22;;;;;;;-2.32;100.00;102037.09;5043037;28;20059;-82
2022/03/11 05:28:24;;;;;;;0.20;0.20;;;;;;;-2.11;100.00;102071.34;5046457;28;20048;-81
2022/03/11 05:30:52;;;;;;;0.20;0.20;;;;;;;-2.13;100.00;102064.50;5042158;28;20413;-81
2022/03/11 05:33:25;;;;;;;0.20;0.20;;;;;;;-2.10;100.00;102064.16;5035073;28;20136;-82
2022/03/11 05:35:53;;;;;;;0.30;0.30;;;;;;;-2.16;100.00;102060.31;5044456;28;20057;-80
2022/03/11 05:38:27;;;;;;;0.30;0.30;;;;;;;-2.21;100.00;102051.94;5045706;28;20064;-82
2022/03/11 05:40:55;;;;;;;0.20;0.20;;;;;;;-2.27;100.00;102048.09;5035575;28;20057;-81
2022/03/11 05:43:24;;;;;;;0.20;0.20;;;;;;;-2.18;100.00;102051.66;5041480;28;20045;-81
2022/03/11 05:45:57;;;;;;;0.22;0.22;;;;;;;-2.19;100.00;102055.31;5046010;28;20501;-82
2022/03/11 05:48:26;;;;;;;0.20;0.20;;;;;;;-2.23;100.00;102040.63;5040571;28;20409;-81
2022/03/11 05:50:59;;;;;;;0.20;0.20;;;;;;;-2.19;100.00;102059.81;5035748;28;20060;-81
2022/03/11 05:53:27;;;;;;;0.20;0.20;;;;;;;-2.23;100.00;102053.97;5044263;28;20528;-80
2022/03/11 05:56:00;;;;;;;0.20;0.20;;;;;;;-2.24;100.00;102049.63;5042452;28;20056;-81
2022/03/11 05:58:35;;;;;;;0.20;0.20;;;;;;;-2.20;100.00;102052.81;5043259;28;20413;-82
2022/03/11 06:01:08;;;;;;;0.30;0.30;;;;;;;-2.17;100.00;102053.31;5045850;28;20512;-81
2022/03/11 06:03:36;;;;;;;0.20;0.20;;;;;;;-2.15;100.00;102066.50;5041124;28;20045;-81
2022/03/11 06:06:09;;;;;;;0.30;0.30;;;;;;;-2.15;100.00;102055.84;5043338;28;20045;-80
2022/03/11 06:08:43;;;;;;;0.22;0.22;;;;;;;-2.18;100.00;102062.31;5047295;28;20486;-81
2022/03/11 06:11:16;;;;;;;0.30;0.30;;;;;;;-2.11;100.00;102078.53;5042476;28;20053;-82
2022/03/11 06:13:46;;;;;;;0.30;0.30;;;;;;;-2.10;100.00;102064.16;5056431;28;20056;-82
2022/03/11 06:16:14;;;;;;;0.20;0.20;;;;;;;-2.18;100.00;102057.00;5041435;28;20399;-82
2022/03/11 06:18:42;;;;;;;0.30;0.30;;;;;;;-2.10;100.00;102077.50;5030374;28;20071;-82
2022/03/11 06:21:16;;;;;;;0.22;0.22;;;;;;;-2.12;100.00;102068.84;5038842;28;20052;-80
2022/03/11 06:23:44;;;;;;;0.20;0.20;;;;;;;-2.10;100.00;102086.34;5044210;28;20041;-81
2022/03/11 06:26:17;;;;;;;0.30;0.30;;;;;;;-2.06;100.00;102084.19;5039843;28;20693;-81
2022/03/11 06:28:51;;;;;;;0.30;0.30;;;;;;;-1.99;100.00;102092.38;5033706;28;20050;-81
2022/03/11 06:31:19;;;;;;;0.20;0.20;;;;;;;-1.99;100.00;102085.22;5039280;28;20509;-81
2022/03/11 06:33:53;;;;;;;0.20;0.20;;;;;;;-2.00;100.00;102077.38;5032003;28;20045;-82
2022/03/11 06:36:28;;;;;;;0.20;0.20;;;;;;;-1.97;100.00;102071.72;5036107;28;20052;-81
2022/03/11 06:39:03;;;;;;;0.20;0.20;;;;;;;-1.90;100.00;102075.41;5037870;28;20413;-81
2022/03/11 06:41:31;;;;;;;0.20;0.20;;;;;;;-1.85;100.00;102073.09;5046494;28;20490;-80
2022/03/11 06:44:00;;;;;;;0.20;0.20;;;;;;;-1.79;100.00;102079.63;5039569;28;20049;-81
2022/03/11 06:46:33;;;;;;;0.20;0.20;;;;;;;-1.73;100.00;102081.63;5053296;28;20052;-81
2022/03/11 06:49:01;;;;;;;0.30;0.30;;;;;;;-1.69;100.00;102074.13;5048714;28;20048;-80
2022/03/11 06:51:35;;;;;;;0.20;0.20;;;;;;;-1.63;100.00;102074.31;5043647;28;20486;-81
2022/03/11 06:54:08;;;;;;;0.20;0.20;;;;;;;-1.58;100.00;102071.13;5040996;28;20053;-80
2022/03/11 06:56:41;;;;;;;0.20;0.20;;;;;;;-1.49;100.00;102072.81;5038156;28;20482;-81
2022/03/11 06:59:10;;;;;;;0.20;0.20;;;;;;;-1.48;100.00;102077.13;5034972;28;20490;-81
2022/03/11 07:01:38;;;;;;;0.30;0.30;;;;;;;-1.43;98.60;102079.34;5036939;28;20046;-81
2022/03/11 07:04:06;;;;;;;0.20;0.20;;;;;;;-1.40;98.99;102071.81;5046916;28;20041;-81
2022/03/11 07:06:39;;;;;;;0.20;0.20;;;;;;;-1.35;99.79;102074.00;5037393;28;20045;-82
2022/03/11 07:09:13;;;;;;;0.20;0.20;;;;;;;-1.28;98.10;102050.13;5037072;28;20050;-84
2022/03/11 07:11:46;;;;;;;0.20;0.20;;;;;;;-1.20;98.92;102061.63;5035599;28;20062;-85
2022/03/11 07:14:21;;;;;;;0.30;0.30;;;;;;;-1.22;93.42;102058.28;5034166;28;20053;-83
2022/03/11 07:16:57;;;;;;;0.25;0.25;;;;;;;-1.14;91.64;102052.13;5033452;28;20048;-83
2022/03/11 07:19:30;;;;;;;0.30;0.30;;;;;;;-1.17;85.17;102047.13;5033190;28;20335;-84
2022/03/11 07:22:05;;;;;;;0.20;0.20;;;;;;;-1.06;87.66;102057.47;5040472;28;20388;-86
2022/03/11 07:24:39;;;;;;;0.20;0.20;;;;;;;-1.06;86.16;102046.78;5031588;28;20053;-85
2022/03/11 07:27:12;;;;;;;0.20;0.20;;;;;;;-0.94;84.58;102049.94;5040225;28;20053;-86
2022/03/11 07:29:46;;;;;;;0.20;0.20;;;;;;;-1.12;83.68;102030.56;5050103;28;20048;-84
2022/03/11 07:32:16;;;;;;;0.20;0.20;;;;;;;-0.96;83.97;102041.25;5047709;28;20045;-86
2022/03/11 07:34:49;;;;;;;0.30;0.30;;;;;;;-0.88;80.92;102049.25;5045545;28;20049;-82
2022/03/11 07:37:22;;;;;;;0.20;0.20;;;;;;;-0.87;79.55;102052.75;5046064;28;20485;-85
2022/03/11 07:39:55;;;;;;;0.20;0.20;;;;;;;-0.77;81.47;102053.41;5048440;28;20405;-85
2022/03/11 07:42:31;;;;;;;0.20;0.20;;;;;;;-0.76;82.83;102049.75;5049052;28;20045;-83
2022/03/11 07:45:07;;;;;;;0.30;0.30;;;;;;;-0.75;77.45;102037.19;5040945;28;20056;-84
2022/03/11 07:47:41;;;;;;;0.20;0.20;;;;;;;-0.67;75.95;102047.88;5046455;28;20045;-84
2022/03/11 07:50:15;;;;;;;0.20;0.20;;;;;;;-0.60;73.31;102058.72;5041576;28;20057;-87
2022/03/11 07:52:48;;;;;;;0.20;0.20;;;;;;;-0.59;72.38;102044.34;5023704;28;20910;-84
2022/03/11 07:55:16;;;;;;;0.20;0.20;;;;;;;-0.52;75.15;102038.13;5031918;28;20072;-84
2022/03/11 07:57:45;;;;;;;0.20;0.20;;;;;;;-0.50;69.94;102043.28;5031080;28;20060;-85
2022/03/11 08:00:20;;;;;;;0.20;0.20;;;;;;;-0.37;74.16;102051.63;5034893;28;20408;-84
2022/03/11 08:02:53;;;;;;;0.22;0.22;;;;;;;-0.42;68.61;102037.09;5033247;28;20052;-84
2022/03/11 08:05:26;;;;;;;0.20;0.20;;;;;;;-0.33;66.68;102053.94;5029396;28;20058;-83
2022/03/11 08:07:59;;;;;;;0.28;0.28;;;;;;;-0.28;69.54;102041.69;5046625;28;20061;-84
2022/03/11 08:10:35;;;;;;;0.20;0.20;;;;;;;-0.36;69.11;102013.16;5039170;28;20060;-83
2022/03/11 08:13:06;;;;;;;0.30;0.30;;;;;;;-0.10;65.75;102037.94;5032036;28;20064;-82
2022/03/11 08:15:41;;;;;;;0.20;0.20;;;;;;;-0.07;66.68;102032.25;5030537;28;20067;-85
2022/03/11 08:18:14;;;;;;;0.20;0.20;;;;;;;-0.03;65.42;102038.91;5031137;28;20041;-85
2022/03/11 08:20:48;;;;;;;0.20;0.20;;;;;;;-0.06;63.87;102018.69;5035947;28;20053;-85
2022/03/11 08:23:16;;;;;;;0.20;0.20;;;;;;;0.06;63.53;102024.47;5029965;28;20049;-82
2022/03/11 08:25:50;;;;;;;0.20;0.20;;;;;;;0.20;61.44;102030.91;5028011;28;20057;-84
2022/03/11 08:28:24;;;;;;;0.28;0.28;;;;;;;0.26;65.17;102018.66;5025675;28;20774;-83
2022/03/11 08:30:58;;;;;;;0.20;0.20;;;;;;;0.30;63.21;102015.47;5030250;28;20964;-86
2022/03/11 08:33:30;;;;;;;0.30;0.30;;;;;;;0.34;61.22;102008.69;5035541;28;20049;-85
2022/03/11 08:36:04;;;;;;;0.15;0.15;;;;;;;0.47;61.59;102018.00;5030203;28;20064;-82
2022/03/11 08:38:37;;;;;;;0.20;0.20;;;;;;;0.45;60.88;102006.63;5025117;28;20054;-83
2022/03/11 08:41:10;;;;;;;0.20;0.20;;;;;;;0.56;59.49;102026.81;5025418;28;20057;-85
2022/03/11 08:43:40;;;;;;;0.22;0.22;;;;;;;0.62;60.94;102020.72;5028465;28;20911;-85
2022/03/11 08:46:15;;;;;;;0.30;0.30;;;;;;;0.70;60.09;102009.94;5027136;28;20048;-82
2022/03/11 08:48:44;;;;;;;0.17;0.17;;;;;;;0.81;59.17;102020.22;5027153;28;20084;-82
2022/03/11 08:51:17;;;;;;;0.30;0.30;;;;;;;0.77;56.67;102008.19;5002787;28;20065;-84
2022/03/11 08:53:45;;;;;;;0.20;0.20;;;;;;;0.91;57.11;102011.09;5027932;28;20053;-82
2022/03/11 08:56:21;;;;;;;0.20;0.20;;;;;;;1.03;58.39;102009.63;5027344;28;20059;-84
2022/03/11 08:58:50;;;;;;;0.28;0.28;;;;;;;0.89;56.67;101992.50;5027288;28;20065;-83
2022/03/11 09:01:25;;;;;;;0.20;0.20;;;;;;;1.06;56.38;101995.84;5034188;28;20057;-84
2022/03/11 09:03:53;;;;;;;0.20;0.20;;;;;;;1.08;55.41;101995.66;5025811;28;20061;-82
2022/03/11 09:06:22;;;;;;;0.20;0.20;;;;;;;1.21;53.91;101984.31;5023700;28;20057;-82
2022/03/11 09:08:51;;;;;;;0.20;0.20;;;;;;;1.25;53.61;101969.50;5026518;28;20053;-82
2022/03/11 09:11:24;;;;;;;0.30;0.30;;;;;;;1.31;52.83;101972.28;5026357;28;20057;-83
2022/03/11 09:13:57;;;;;;;0.20;0.20;;;;;;;1.37;54.88;101978.75;5027920;28;20060;-82
2022/03/11 09:16:26;;;;;;;0.20;0.20;;;;;;;1.53;52.17;101964.28;5022696;28;20061;-82
2022/03/11 09:19:01;;;;;;;0.10;0.10;;;;;;;1.61;52.08;101979.44;5023800;28;20064;-84
2022/03/11 09:21:29;;;;;;;0.20;0.20;;;;;;;1.67;52.52;101965.25;5027762;28;20050;-83
2022/03/11 09:24:02;;;;;;;0.20;0.20;;;;;;;1.74;51.60;101955.47;5027131;28;20045;-82
2022/03/11 09:26:36;;;;;;;0.20;0.20;;;;;;;1.86;51.84;101955.78;5031480;28;20060;-83
2022/03/11 09:29:04;;;;;;;0.20;0.20;;;;;;;1.84;49.68;101950.59;5024831;28;20057;-85
2022/03/11 09:31:40;;;;;;;0.20;0.20;;;;;;;1.94;49.93;101939.56;5022095;28;20067;-83
2022/03/11 09:34:13;;;;;;;0.20;0.20;;;;;;;2.02;50.23;101943.97;5028692;28;20052;-83
2022/03/11 09:36:46;;;;;;;0.10;0.10;;;;;;;2.02;49.47;101922.50;5021903;28;20061;-84
2022/03/11 09:39:19;;;;;;;0.22;0.22;;;;;;;2.28;49.78;101934.47;5028266;28;20054;-83
2022/03/11 09:41:53;;;;;;;0.10;0.10;;;;;;;2.23;49.26;101924.31;5025565;28;20048;-83
2022/03/11 09:44:26;;;;;;;0.20;0.20;;;;;;;2.40;46.89;101937.50;5036595;28;20052;-87
2022/03/11 09:46:56;;;;;;;0.20;0.20;;;;;;;2.47;47.74;101931.16;5031267;28;20053;-83
2022/03/11 09:49:33;;;;;;;0.20;0.20;;;;;;;2.58;48.15;101935.13;5027636;28;20060;-83
2022/03/11 09:52:07;;;;;;;;;;;;;;;2.67;47.63;101925.91;5000769;28;20062;-83
2022/03/11 09:54:40;;;;;;;0.20;0.20;;;;;;;2.64;46.01;101917.44;5026934;28;19929;-84
2022/03/11 09:57:17;;;;;;;0.20;0.20;;;;;;;2.68;45.19;101915.97;5041698;28;20521;-83
2022/03/11 09:59:51;;;;;;;0.30;0.30;;;;;;;2.69;46.37;101909.59;5026971;28;20056;-85
2022/03/11 10:02:20;;;;;;;0.20;0.20;;;;;;;2.87;44.25;101915.28;5035337;28;20063;-83
2022/03/11 10:04:50;;;;;;;0.20;0.20;;;;;;;3.02;46.98;101923.22;5025302;28;20052;-83
2022/03/11 10:07:24;;;;;;;0.20;0.20;;;;;;;3.12;45.05;101906.75;5024147;28;20056;-83
2022/03/11 10:10:11;;;;;;;0.20;0.20;;;;;;;3.19;43.48;101920.19;5026414;28;20045;-85
2022/03/11 10:12:47;;;;;;;0.13;0.13;;;;;;;3.20;43.39;101914.63;5026478;28;20414;-83
2022/03/11 10:15:27;;;;;;;0.20;0.20;;;;;;;3.35;44.19;101901.03;5024681;28;20061;-84
2022/03/11 10:18:02;;;;;;;0.20;0.20;;;;;;;3.31;43.00;101904.31;5027512;28;20053;-84
2022/03/11 10:20:32;;;;;;;0.20;0.20;;;;;;;3.44;43.20;101907.06;5027413;28;20049;-83
2022/03/11 10:23:09;;;;;;;0.22;0.22;;;;;;;3.34;42.07;101896.69;5029412;28;20061;-83
2022/03/11 10:25:43;;;;;;;0.52;0.20;;;;;;;3.45;42.53;101897.13;5037430;28;20076;-83
2022/03/11 10:28:17;;;;;;;0.20;0.20;;;;;;;3.60;41.92;101908.56;5029339;28;20045;-84
2022/03/11 10:30:45;;;;;;;0.20;0.20;;;;;;;3.54;41.71;101882.47;5030815;28;20052;-85
2022/03/11 10:33:21;;;;;;;0.20;0.20;;;;;;;3.79;42.14;101904.25;5031200;28;20048;-84
2022/03/11 10:35:54;;;;;;;0.20;0.20;;;;;;;3.83;39.72;101905.50;5024646;28;21201;-84
2022/03/11 10:38:27;;;;;;;0.20;0.20;;;;;;;3.96;42.06;101901.16;5023296;28;20060;-86
2022/03/11 10:40:57;;;;;;;0.20;0.20;;;;;;;3.99;40.21;101907.00;5022002;28;20068;-83
2022/03/11 10:43:32;;;;;;;0.20;0.20;;;;;;;4.11;40.66;101901.81;5031235;28;20052;-84
2022/03/11 10:46:09;;;;;;;0.20;0.20;;;;;;;4.09;39.87;101874.25;5026042;28;20171;-80
2022/03/11 10:48:46;;;;;;;0.20;0.20;;;;;;;4.31;40.15;101898.28;5026791;28;21438;-82
2022/03/11 10:51:26;;;;;;;0.20;0.20;;;;;;;4.29;39.47;101882.31;4998050;28;20060;-84
2022/03/11 10:53:56;;;;;;;0.20;0.20;;;;;;;4.39;39.30;101877.34;5026190;28;20060;-83
2022/03/11 10:56:29;;;;;;;0.20;0.20;;;;;;;4.46;39.21;101865.72;5028165;28;20056;-81
2022/03/11 10:59:05;;;;;;;0.20;0.20;;;;;;;4.51;39.92;101872.13;5027123;28;20049;-83
2022/03/11 11:01:39;;;;;;;0.25;0.25;;;;;;;4.65;41.09;101872.13;5028906;28;20109;-82
2022/03/11 11:04:12;;;;;;;0.20;0.20;;;;;;;4.69;39.50;101863.38;5028978;28;20092;-83
2022/03/11 11:06:46;;;;;;;0.20;0.20;;;;;;;4.72;41.24;101868.38;5028938;28;20120;-83
2022/03/11 11:09:17;;;;;;;0.20;0.20;;;;;;;4.59;39.31;101871.09;5031549;28;20053;-83
2022/03/11 11:11:51;;;;;;;0.20;0.20;;;;;;;4.73;40.21;101856.53;5032745;28;20049;-84
2022/03/11 11:14:19;;;;;;;0.32;0.20;;;;;;;4.80;40.94;101856.53;5032529;28;20064;-80
2022/03/11 11:16:50;;;;;;;0.20;0.20;;;;;;;5.01;41.81;101835.69;5028795;28;20060;-82
2022/03/11 11:19:25;;;;;;;0.20;0.20;;;;;;;5.05;39.93;101836.94;5027681;28;20061;-84
2022/03/11 11:21:59;;;;;;;0.20;0.20;;;;;;;5.07;38.43;101837.56;5030498;28;21458;-83
2022/03/11 11:24:39;;;;;;;0.20;0.20;;;;;;;4.96;39.44;101813.91;5027689;28;20048;-83
2022/03/11 11:27:14;;;;;;;0.20;0.20;;;;;;;4.98;38.80;101836.13;5029656;28;20041;-81
2022/03/11 11:29:43;;;;;;;0.20;0.20;;;;;;;4.98;39.48;101822.66;5026155;28;20112;-82
2022/03/11 11:32:17;;;;;;;0.20;0.20;;;;;;;5.19;38.86;101822.34;5030923;28;20057;-81
2022/03/11 11:34:52;;;;;;;0.20;0.20;;;;;;;5.11;38.39;101814.50;5032931;28;21406;-81
2022/03/11 11:37:38;;;;;;;0.20;0.20;;;;;;;5.24;39.45;101822.50;5029982;28;20052;-82
2022/03/11 11:40:18;;;;;;;0.20;0.20;;;;;;;5.26;38.75;101814.19;5027388;28;20398;-82
2022/03/11 11:43:26;;;;;;;0.20;0.20;;;;;;;5.30;38.62;101806.50;5026561;28;20123;-82
2022/03/11 11:45:58;;;;;;;0.20;0.20;;;;;;;5.21;39.19;101800.53;5035459;28;20068;-81
2022/03/11 11:48:57;;;;;;;0.20;0.20;;;;;;;5.35;38.77;101806.69;5029170;28;20057;-82